createdAt,value
2022-12-31T00:00:23.912Z,11.05
2022-12-31T00:02:54.520Z,10.82
2022-12-31T00:05:25.204Z,10.15
2022-12-31T00:07:57.442Z,10.40
2022-12-31T00:10:27.968Z,12.82
2022-12-31T00:13:14.940Z,14.13
2022-12-31T00:15:46.227Z,14.05
2022-12-31T00:18:18.998Z,11.73
2022-12-31T00:20:49.491Z,9.95
2022-12-31T00:23:21.620Z,9.73
2022-12-31T00:25:52.188Z,9.98
2022-12-31T00:28:22.843Z,37.33
2022-12-31T00:30:57.193Z,19.85
2022-12-31T00:33:44.412Z,23.35
2022-12-31T00:36:17.025Z,33.10
2022-12-31T00:38:50.594Z,25.50
2022-12-31T00:41:23.198Z,16.67
2022-12-31T00:43:54.123Z,16.00
2022-12-31T00:46:25.913Z,15.05
2022-12-31T00:49:13.757Z,21.58
2022-12-31T00:52:01.289Z,16.98
2022-12-31T00:54:33.625Z,13.77
2022-12-31T00:57:04.307Z,18.30
2022-12-31T00:59:34.928Z,15.98
2022-12-31T01:02:05.664Z,16.83
2022-12-31T01:04:40.777Z,16.80
2022-12-31T01:07:11.513Z,17.77
2022-12-31T01:09:46.715Z,15.98
2022-12-31T01:12:23.341Z,16.50
2022-12-31T01:14:55.726Z,15.73
2022-12-31T01:17:26.327Z,22.20
2022-12-31T01:19:59.905Z,21.23
2022-12-31T01:22:30.357Z,18.25
2022-12-31T01:25:05.117Z,17.88
2022-12-31T01:27:35.729Z,19.85
2022-12-31T01:30:06.953Z,20.50
2022-12-31T01:32:37.489Z,20.17
2022-12-31T01:35:08.736Z,17.77
2022-12-31T01:37:56.013Z,22.20
2022-12-31T01:40:28.295Z,18.58
2022-12-31T01:42:58.879Z,19.65
2022-12-31T01:45:30.014Z,18.92
2022-12-31T01:48:02.613Z,17.98
2022-12-31T01:50:36.625Z,20.83
2022-12-31T01:53:10.199Z,21.08
2022-12-31T01:55:51.048Z,20.23
2022-12-31T01:58:25.879Z,22.98
2022-12-31T02:01:20.192Z,22.65
2022-12-31T02:04:08.677Z,22.63
2022-12-31T02:06:43.588Z,21.27
2022-12-31T02:09:16.871Z,20.10
2022-12-31T02:11:49.081Z,20.90
2022-12-31T02:14:23.679Z,19.70
2022-12-31T02:16:59.362Z,19.52
2022-12-31T02:19:53.780Z,19.55
2022-12-31T02:22:39.598Z,17.75
2022-12-31T02:25:37.599Z,15.80
2022-12-31T02:28:22.737Z,15.05
2022-12-31T02:31:16.872Z,11.25
2022-12-31T02:33:54.576Z,10.00
2022-12-31T02:36:30.586Z,7.75
2022-12-31T02:39:05.706Z,6.38
2022-12-31T02:41:55.356Z,6.28
2022-12-31T02:44:35.056Z,5.65
2022-12-31T02:47:23.243Z,4.63
2022-12-31T02:50:21.364Z,4.57
2022-12-31T02:53:02.793Z,4.68
2022-12-31T02:55:42.845Z,5.13
2022-12-31T03:01:15.017Z,4.13
2022-12-31T03:04:10.041Z,4.22
2022-12-31T03:06:44.883Z,5.60
2022-12-31T03:09:18.424Z,4.95
2022-12-31T03:12:10.023Z,5.28
2022-12-31T03:14:45.626Z,4.20
2022-12-31T03:17:17.731Z,4.78
2022-12-31T03:20:26.442Z,4.38
2022-12-31T03:22:57.346Z,4.75
2022-12-31T03:25:41.854Z,3.78
2022-12-31T03:28:13.664Z,3.97
2022-12-31T03:30:46.252Z,3.63
2022-12-31T03:33:17.326Z,3.78
2022-12-31T03:35:54.948Z,4.03
2022-12-31T03:38:25.933Z,4.38
2022-12-31T03:40:57.162Z,4.70
2022-12-31T03:43:28.288Z,3.63
2022-12-31T03:46:00.651Z,3.97
2022-12-31T03:48:31.835Z,3.63
2022-12-31T03:51:07.212Z,3.67
2022-12-31T03:53:38.461Z,3.88
2022-12-31T03:56:09.521Z,3.95
2022-12-31T03:58:40.414Z,3.20
2022-12-31T04:01:11.323Z,3.35
2022-12-31T04:03:42.297Z,3.60
2022-12-31T04:06:15.736Z,4.93
2022-12-31T04:08:46.391Z,3.60
2022-12-31T04:11:20.835Z,4.43
2022-12-31T04:13:51.669Z,3.97
2022-12-31T04:16:22.741Z,3.90
2022-12-31T04:18:53.293Z,3.90
2022-12-31T04:21:30.095Z,4.78
2022-12-31T04:24:04.056Z,4.85
2022-12-31T04:26:34.679Z,5.32
2022-12-31T04:29:05.257Z,3.97
2022-12-31T04:31:35.813Z,4.22
2022-12-31T04:34:23.413Z,5.97
2022-12-31T04:37:12.113Z,5.53
2022-12-31T04:39:42.640Z,5.18
2022-12-31T04:42:13.339Z,3.83
2022-12-31T04:44:44.422Z,3.42
2022-12-31T04:47:18.767Z,3.75
2022-12-31T04:49:53.900Z,4.55
2022-12-31T04:52:26.200Z,3.70
2022-12-31T04:54:59.375Z,3.83
2022-12-31T04:57:29.987Z,3.65
2022-12-31T05:00:00.573Z,3.85
2022-12-31T05:02:33.715Z,4.18
2022-12-31T05:05:04.452Z,3.75
2022-12-31T05:07:54.456Z,4.45
2022-12-31T05:10:25.570Z,4.30
2022-12-31T05:13:15.309Z,4.07
2022-12-31T05:15:46.058Z,4.90
2022-12-31T05:18:17.238Z,5.57
2022-12-31T05:20:48.174Z,7.43
2022-12-31T05:23:21.097Z,8.25
2022-12-31T05:25:51.883Z,8.25
2022-12-31T05:28:22.791Z,7.65
2022-12-31T05:31:11.285Z,7.15
2022-12-31T05:33:41.909Z,6.00
2022-12-31T05:36:29.187Z,7.20
2022-12-31T05:39:01.775Z,8.20
2022-12-31T05:41:32.247Z,10.50
2022-12-31T05:44:02.795Z,8.98
2022-12-31T05:46:33.487Z,8.20
2022-12-31T05:49:04.172Z,6.57
2022-12-31T05:51:34.949Z,6.63
2022-12-31T05:54:07.544Z,6.30
2022-12-31T05:56:38.165Z,5.80
2022-12-31T05:59:09.067Z,5.18
2022-12-31T06:01:39.700Z,5.05
2022-12-31T06:04:10.144Z,4.50
2022-12-31T06:06:40.824Z,5.65
2022-12-31T06:09:29.849Z,5.28
2022-12-31T06:12:00.446Z,4.53
2022-12-31T06:14:30.920Z,5.20
2022-12-31T06:17:01.762Z,13.27
2022-12-31T06:19:32.955Z,18.40
2022-12-31T06:22:03.595Z,19.10
2022-12-31T06:24:35.864Z,6.50
2022-12-31T06:27:06.385Z,5.85
2022-12-31T06:29:37.212Z,6.32
2022-12-31T06:32:13.171Z,6.07
2022-12-31T06:34:45.693Z,6.80
2022-12-31T06:37:16.321Z,6.13
2022-12-31T06:39:48.551Z,30.88
2022-12-31T06:42:19.133Z,16.10
2022-12-31T06:44:49.760Z,8.27
2022-12-31T06:47:20.339Z,6.32
2022-12-31T06:49:51.026Z,6.43
2022-12-31T06:52:22.006Z,6.10
2022-12-31T06:54:55.080Z,5.78
2022-12-31T06:57:26.172Z,7.50
2022-12-31T06:59:57.363Z,11.18
2022-12-31T07:02:41.405Z,11.02
2022-12-31T07:05:40.111Z,12.55
2022-12-31T07:08:39.823Z,15.52
2022-12-31T07:11:21.571Z,18.85
2022-12-31T07:14:06.883Z,16.13
2022-12-31T07:16:52.872Z,12.15
2022-12-31T07:19:36.731Z,9.35
2022-12-31T07:22:08.243Z,8.15
2022-12-31T07:24:42.307Z,5.50
2022-12-31T07:27:43.714Z,5.68
2022-12-31T07:30:18.131Z,5.50
2022-12-31T07:33:29.553Z,4.70
2022-12-31T07:39:08.419Z,6.78
2022-12-31T07:41:51.389Z,9.02
2022-12-31T07:44:37.730Z,8.88
2022-12-31T07:47:16.899Z,14.43
2022-12-31T07:49:48.161Z,14.98
2022-12-31T07:52:37.228Z,32.75
2022-12-31T07:55:08.513Z,12.45
2022-12-31T07:57:46.089Z,7.65
2022-12-31T08:00:21.773Z,5.30
2022-12-31T08:03:31.403Z,6.65
2022-12-31T08:06:29.528Z,22.40
2022-12-31T08:09:09.547Z,24.98
2022-12-31T08:12:03.981Z,19.45
2022-12-31T08:14:36.966Z,13.75
2022-12-31T08:17:14.587Z,21.48
2022-12-31T08:19:46.615Z,17.13
2022-12-31T08:22:59.253Z,15.25
2022-12-31T08:25:39.764Z,13.38
2022-12-31T08:28:34.401Z,14.20
2022-12-31T08:31:10.038Z,17.55
2022-12-31T08:33:51.518Z,17.05
2022-12-31T08:36:49.167Z,16.35
2022-12-31T08:39:33.760Z,25.27
2022-12-31T08:42:07.758Z,20.05
2022-12-31T08:44:50.653Z,23.77
2022-12-31T08:47:38.267Z,38.35
2022-12-31T08:50:17.431Z,42.25
2022-12-31T08:52:49.052Z,45.53
2022-12-31T08:55:38.686Z,50.05
2022-12-31T08:58:25.114Z,57.65
2022-12-31T09:00:59.920Z,35.88
2022-12-31T09:03:44.833Z,33.05
2022-12-31T09:06:30.359Z,42.72
2022-12-31T09:09:24.507Z,24.15
2022-12-31T09:12:01.570Z,13.23
2022-12-31T09:14:53.786Z,10.63
2022-12-31T09:17:49.355Z,10.55
2022-12-31T09:20:43.842Z,11.60
2022-12-31T09:23:18.520Z,10.40
2022-12-31T09:25:58.222Z,10.80
2022-12-31T09:28:43.704Z,13.88
2022-12-31T09:31:19.135Z,15.40
2022-12-31T09:33:57.150Z,24.25
2022-12-31T09:36:34.763Z,29.05
2022-12-31T09:39:16.527Z,41.35
2022-12-31T09:42:15.436Z,39.90
2022-12-31T09:45:10.028Z,35.38
2022-12-31T09:48:14.544Z,30.23
2022-12-31T09:51:25.516Z,24.63
2022-12-31T09:54:38.870Z,18.70
2022-12-31T09:57:30.436Z,19.48
2022-12-31T10:00:06.398Z,19.13
2022-12-31T10:02:55.216Z,12.85
2022-12-31T10:05:45.320Z,9.50
2022-12-31T10:11:00.211Z,10.25
2022-12-31T10:13:51.663Z,16.85
2022-12-31T10:16:47.689Z,17.20
2022-12-31T10:19:42.319Z,16.98
2022-12-31T10:22:34.032Z,19.38
2022-12-31T10:25:38.463Z,21.92
2022-12-31T10:28:26.540Z,15.38
2022-12-31T10:31:09.483Z,15.93
2022-12-31T10:33:47.071Z,13.75
2022-12-31T10:36:29.826Z,10.35
2022-12-31T10:39:14.482Z,11.85
2022-12-31T10:42:20.037Z,10.77
2022-12-31T10:45:40.876Z,12.57
2022-12-31T10:48:56.426Z,14.93
2022-12-31T10:52:03.687Z,31.77
2022-12-31T10:55:28.789Z,56.88
2022-12-31T10:58:48.437Z,38.50
2022-12-31T11:01:27.952Z,35.10
2022-12-31T11:04:36.054Z,42.38
2022-12-31T11:07:35.425Z,60.65
2022-12-31T11:10:49.657Z,28.63
2022-12-31T11:14:00.537Z,25.27
2022-12-31T11:16:59.167Z,34.95
2022-12-31T11:19:41.825Z,29.92
2022-12-31T11:23:05.845Z,20.80
2022-12-31T11:25:50.554Z,18.60
2022-12-31T11:28:45.984Z,16.10
2022-12-31T11:31:57.120Z,25.08
2022-12-31T11:34:54.464Z,23.33
2022-12-31T11:37:39.804Z,24.40
2022-12-31T11:40:33.977Z,19.65
2022-12-31T11:43:07.627Z,17.52
2022-12-31T11:47:01.102Z,20.75
2022-12-31T11:49:19.106Z,19.02
2022-12-31T11:52:16.003Z,25.02
2022-12-31T11:55:21.485Z,20.95
2022-12-31T12:01:02.018Z,22.70
2022-12-31T12:03:39.437Z,26.95
2022-12-31T12:06:13.809Z,24.77
2022-12-31T12:08:46.837Z,24.08
2022-12-31T12:11:26.173Z,23.65
2022-12-31T12:14:18.115Z,19.33
2022-12-31T12:16:57.855Z,19.55
2022-12-31T12:19:49.825Z,16.60
2022-12-31T12:25:39.770Z,15.50
2022-12-31T12:28:44.419Z,12.23
2022-12-31T12:31:28.379Z,11.45
2022-12-31T12:37:35.358Z,10.85
2022-12-31T12:40:20.337Z,12.23
2022-12-31T12:43:11.724Z,13.48
2022-12-31T12:46:01.032Z,12.90
2022-12-31T12:48:40.427Z,12.95
2022-12-31T12:51:38.536Z,11.55
2022-12-31T12:54:27.234Z,10.27
2022-12-31T12:57:28.508Z,10.18
2022-12-31T13:00:37.994Z,9.45
2022-12-31T13:07:08.833Z,6.82
2022-12-31T13:10:09.911Z,6.60
2022-12-31T13:13:23.711Z,7.20
2022-12-31T13:16:26.826Z,12.00
2022-12-31T13:19:16.521Z,10.38
2022-12-31T13:22:08.888Z,11.38
2022-12-31T13:25:09.904Z,11.18
2022-12-31T13:27:51.873Z,12.27
2022-12-31T13:31:00.475Z,14.70
2022-12-31T13:33:56.351Z,16.90
2022-12-31T13:36:56.789Z,19.23
2022-12-31T13:39:41.957Z,92.63
2022-12-31T13:42:20.758Z,83.45
2022-12-31T13:45:16.280Z,73.53
2022-12-31T13:47:54.349Z,40.90
2022-12-31T13:51:11.588Z,23.85
2022-12-31T13:54:00.223Z,18.98
2022-12-31T13:56:44.548Z,20.05
2022-12-31T13:59:50.929Z,14.75
2022-12-31T14:02:48.660Z,11.75
2022-12-31T14:05:38.323Z,8.73
2022-12-31T14:08:16.417Z,8.60
2022-12-31T14:11:10.839Z,8.00
2022-12-31T14:14:06.591Z,7.32
2022-12-31T14:16:57.736Z,7.68
2022-12-31T14:20:10.306Z,7.18
2022-12-31T14:23:14.163Z,7.10
2022-12-31T14:26:05.045Z,5.47
2022-12-31T14:28:48.790Z,5.25
2022-12-31T14:31:37.730Z,4.55
2022-12-31T14:34:25.004Z,5.15
2022-12-31T14:37:10.820Z,6.93
2022-12-31T14:40:11.259Z,6.95
2022-12-31T14:43:13.828Z,6.90
2022-12-31T14:46:03.571Z,5.97
2022-12-31T14:48:50.742Z,7.13
2022-12-31T14:51:31.684Z,7.22
2022-12-31T14:54:09.758Z,6.90
2022-12-31T14:56:56.477Z,7.00
2022-12-31T14:59:40.389Z,6.90
2022-12-31T15:02:36.694Z,5.50
2022-12-31T15:05:23.738Z,5.43
2022-12-31T15:08:16.413Z,5.18
2022-12-31T15:11:05.961Z,5.32
2022-12-31T15:14:01.699Z,5.88
2022-12-31T15:17:10.908Z,5.07
2022-12-31T15:20:18.676Z,4.90
2022-12-31T15:22:57.574Z,3.75
2022-12-31T15:25:44.961Z,4.55
2022-12-31T15:28:37.690Z,4.78
2022-12-31T15:31:32.372Z,5.10
2022-12-31T15:34:53.204Z,5.10
2022-12-31T15:37:51.413Z,5.35
2022-12-31T15:40:35.656Z,5.18
2022-12-31T15:43:32.579Z,6.20
2022-12-31T15:46:27.801Z,6.13
2022-12-31T15:49:29.504Z,5.65
2022-12-31T15:55:58.532Z,6.43
2022-12-31T15:58:47.202Z,6.85
2022-12-31T16:01:27.300Z,7.70
2022-12-31T16:06:58.681Z,11.85
2022-12-31T16:09:49.160Z,11.82
2022-12-31T16:12:57.243Z,9.63
2022-12-31T16:15:37.794Z,8.48
2022-12-31T16:18:22.842Z,7.15
2022-12-31T16:21:04.159Z,8.50
2022-12-31T16:23:42.488Z,7.13
2022-12-31T16:29:42.617Z,7.30
2022-12-31T16:32:23.343Z,6.75
2022-12-31T16:35:23.028Z,8.10
2022-12-31T16:38:42.130Z,8.25
2022-12-31T16:44:40.585Z,7.35
2022-12-31T16:47:39.530Z,6.20
2022-12-31T16:50:25.215Z,6.18
2022-12-31T16:53:21.710Z,5.65
2022-12-31T16:56:48.782Z,6.15
2022-12-31T16:59:38.157Z,6.50
2022-12-31T17:05:37.485Z,6.90
2022-12-31T17:08:34.348Z,6.22
2022-12-31T17:11:23.961Z,7.10
2022-12-31T17:14:04.760Z,6.45
2022-12-31T17:16:43.955Z,5.75
2022-12-31T17:22:56.395Z,6.85
2022-12-31T17:25:37.283Z,5.53
2022-12-31T17:28:25.645Z,5.80
2022-12-31T17:31:05.772Z,6.43
2022-12-31T17:36:50.505Z,6.22
2022-12-31T17:39:45.021Z,6.72
2022-12-31T17:42:39.973Z,6.50
2022-12-31T17:45:24.536Z,6.93
2022-12-31T17:48:11.818Z,6.95
2022-12-31T17:51:01.248Z,7.28
2022-12-31T17:54:02.008Z,7.25
2022-12-31T17:56:34.864Z,7.68
2022-12-31T17:59:12.683Z,8.57
2022-12-31T18:01:53.776Z,8.20
2022-12-31T18:04:40.083Z,7.50
2022-12-31T18:07:27.202Z,6.85
2022-12-31T18:10:05.577Z,7.25
2022-12-31T18:12:43.505Z,7.43
2022-12-31T18:15:32.137Z,8.57
2022-12-31T18:18:10.427Z,7.85
2022-12-31T18:20:52.916Z,8.23
2022-12-31T18:23:32.561Z,7.65
2022-12-31T18:26:11.970Z,9.48
2022-12-31T18:28:53.994Z,7.50
2022-12-31T18:31:43.773Z,7.95
2022-12-31T18:34:21.546Z,7.88
2022-12-31T18:37:05.702Z,7.63
2022-12-31T18:39:41.608Z,7.57
2022-12-31T18:42:43.140Z,8.07
2022-12-31T18:45:25.679Z,8.40
2022-12-31T18:48:14.352Z,8.52
2022-12-31T18:51:01.582Z,7.88
2022-12-31T18:53:47.240Z,8.65
2022-12-31T18:56:26.306Z,7.93
2022-12-31T18:59:19.867Z,7.95
2022-12-31T19:01:56.355Z,8.98
2022-12-31T19:04:44.937Z,8.98
2022-12-31T19:07:25.383Z,9.38
2022-12-31T19:10:30.456Z,9.18
2022-12-31T19:13:12.775Z,8.65
2022-12-31T19:15:50.073Z,8.85
2022-12-31T19:21:31.171Z,10.00
2022-12-31T19:24:18.384Z,9.55
2022-12-31T19:27:01.867Z,8.95
2022-12-31T19:29:50.626Z,9.68
2022-12-31T19:32:27.572Z,9.20
2022-12-31T19:35:07.355Z,8.85
2022-12-31T19:37:40.167Z,9.73
2022-12-31T19:40:19.096Z,9.88
2022-12-31T19:43:00.260Z,8.95
2022-12-31T19:45:54.374Z,10.13
2022-12-31T19:48:52.349Z,9.85
2022-12-31T19:51:29.062Z,9.32
2022-12-31T19:54:18.404Z,9.75
2022-12-31T19:56:56.550Z,9.90
2022-12-31T19:59:47.421Z,9.80
2022-12-31T20:08:35.128Z,10.20
2022-12-31T20:11:14.451Z,11.13
2022-12-31T20:14:13.419Z,10.75
2022-12-31T20:17:00.787Z,9.48
2022-12-31T20:19:36.936Z,10.48
2022-12-31T20:22:24.720Z,12.82
2022-12-31T20:25:10.624Z,9.52
2022-12-31T20:27:54.174Z,10.82
2022-12-31T20:30:35.704Z,10.98
2022-12-31T20:33:19.007Z,12.15
2022-12-31T20:36:23.190Z,9.85
2022-12-31T20:39:25.337Z,10.98
2022-12-31T20:42:12.982Z,10.80
2022-12-31T20:44:59.180Z,10.07
2022-12-31T20:47:46.891Z,11.65
2022-12-31T20:50:33.063Z,11.30
2022-12-31T20:53:18.235Z,9.82
2022-12-31T20:56:20.929Z,10.15
2022-12-31T20:59:31.735Z,10.13
2022-12-31T21:02:21.527Z,10.48
2022-12-31T21:04:58.187Z,10.50
2022-12-31T21:07:39.901Z,9.48
2022-12-31T21:10:32.867Z,10.07
2022-12-31T21:13:45.996Z,10.48
2022-12-31T21:16:29.336Z,10.63
2022-12-31T21:19:11.782Z,11.80
2022-12-31T21:21:55.888Z,103.07
2022-12-31T21:24:30.547Z,33.45
2022-12-31T21:27:05.587Z,16.33
2022-12-31T21:30:17.827Z,12.27
2022-12-31T21:33:06.084Z,10.43
2022-12-31T21:35:53.277Z,13.05
2022-12-31T21:38:38.391Z,66.20
2022-12-31T21:41:35.040Z,51.47
2022-12-31T21:44:10.723Z,38.80
2022-12-31T21:47:33.149Z,22.27
2022-12-31T21:49:55.490Z,34.03
2022-12-31T21:52:47.154Z,39.22
2022-12-31T21:55:34.304Z,32.97
2022-12-31T21:58:27.418Z,22.85
2022-12-31T22:01:40.970Z,15.38
2022-12-31T22:05:00.230Z,23.58
2022-12-31T22:10:22.283Z,15.68
2022-12-31T22:13:15.378Z,15.05
2022-12-31T22:15:48.208Z,17.77
2022-12-31T22:18:43.024Z,37.45
2022-12-31T22:21:24.923Z,40.45
2022-12-31T22:24:09.385Z,23.17
2022-12-31T22:26:47.579Z,19.05
2022-12-31T22:29:48.049Z,15.20
2022-12-31T22:32:23.866Z,12.68
2022-12-31T22:35:13.199Z,12.48
2022-12-31T22:38:18.667Z,12.63
2022-12-31T22:40:54.415Z,13.45
2022-12-31T22:43:41.886Z,14.10
2022-12-31T22:46:37.625Z,13.52
2022-12-31T22:49:56.809Z,14.95
2022-12-31T22:52:28.930Z,13.15
2022-12-31T22:55:13.719Z,12.32
2022-12-31T22:57:49.692Z,12.43
2022-12-31T23:03:35.257Z,12.73
2022-12-31T23:06:26.644Z,13.98
2022-12-31T23:09:14.570Z,13.48
2022-12-31T23:11:51.818Z,13.70
2022-12-31T23:14:42.474Z,14.43
2022-12-31T23:17:40.109Z,13.15
2022-12-31T23:20:36.280Z,12.65
2022-12-31T23:23:16.177Z,10.30
2022-12-31T23:25:53.005Z,12.52
2022-12-31T23:31:40.519Z,11.02
2022-12-31T23:34:34.758Z,10.70
2022-12-31T23:37:09.758Z,10.98
2022-12-31T23:39:49.196Z,11.40
2022-12-31T23:42:24.883Z,11.32
2022-12-31T23:45:06.541Z,11.45
2022-12-31T23:47:48.917Z,11.80
2022-12-31T23:50:27.206Z,12.45
2022-12-31T23:53:11.239Z,11.10
2022-12-31T23:55:58.146Z,11.10
2022-12-31T23:58:36.317Z,10.45
